sensor_id;sensor_type;location;lat;lon;timestamp;temperature;humidity
48998;DHT22;34807;51.456;7.244;2023-04-21T00:02:09;10.70;87.10
48998;DHT22;34807;51.456;7.244;2023-04-21T00:04:40;10.80;87.20
48998;DHT22;34807;51.456;7.244;2023-04-21T00:07:05;10.70;87.30
48998;DHT22;34807;51.456;7.244;2023-04-21T00:09:31;10.70;87.30
48998;DHT22;34807;51.456;7.244;2023-04-21T00:11:56;10.70;87.30
48998;DHT22;34807;51.456;7.244;2023-04-21T00:14:22;10.70;87.30
48998;DHT22;34807;51.456;7.244;2023-04-21T00:16:47;10.70;88.00
48998;DHT22;34807;51.456;7.244;2023-04-21T00:19:19;10.70;87.50
48998;DHT22;34807;51.456;7.244;2023-04-21T00:21:45;10.70;87.60
48998;DHT22;34807;51.456;7.244;2023-04-21T00:24:10;10.60;87.40
48998;DHT22;34807;51.456;7.244;2023-04-21T00:26:36;10.60;87.70
48998;DHT22;34807;51.456;7.244;2023-04-21T00:29:01;10.60;87.50
48998;DHT22;34807;51.456;7.244;2023-04-21T00:31:27;10.60;87.70
48998;DHT22;34807;51.456;7.244;2023-04-21T00:33:52;10.60;87.70
48998;DHT22;34807;51.456;7.244;2023-04-21T00:36:18;10.60;87.90
48998;DHT22;34807;51.456;7.244;2023-04-21T00:38:43;10.60;87.90
48998;DHT22;34807;51.456;7.244;2023-04-21T00:41:09;10.60;87.90
48998;DHT22;34807;51.456;7.244;2023-04-21T00:43:34;10.60;88.00
48998;DHT22;34807;51.456;7.244;2023-04-21T00:46:00;10.50;88.10
48998;DHT22;34807;51.456;7.244;2023-04-21T00:48:26;10.50;88.20
48998;DHT22;34807;51.456;7.244;2023-04-21T00:50:51;10.50;88.30
48998;DHT22;34807;51.456;7.244;2023-04-21T00:53:17;10.50;88.40
48998;DHT22;34807;51.456;7.244;2023-04-21T00:55:43;10.50;88.80
48998;DHT22;34807;51.456;7.244;2023-04-21T00:58:10;10.50;88.90
48998;DHT22;34807;51.456;7.244;2023-04-21T01:00:36;10.50;88.50
48998;DHT22;34807;51.456;7.244;2023-04-21T01:03:02;10.50;88.70
48998;DHT22;34807;51.456;7.244;2023-04-21T01:05:29;10.50;88.80
48998;DHT22;34807;51.456;7.244;2023-04-21T01:07:55;10.50;88.80
48998;DHT22;34807;51.456;7.244;2023-04-21T01:10:20;10.50;88.90
48998;DHT22;34807;51.456;7.244;2023-04-21T01:12:46;10.50;88.80
48998;DHT22;34807;51.456;7.244;2023-04-21T01:15:12;10.50;89.00
48998;DHT22;34807;51.456;7.244;2023-04-21T01:17:38;10.40;88.90
48998;DHT22;34807;51.456;7.244;2023-04-21T01:20:08;10.40;88.80
48998;DHT22;34807;51.456;7.244;2023-04-21T01:22:35;10.40;89.00
48998;DHT22;34807;51.456;7.244;2023-04-21T01:25:01;10.40;89.10
48998;DHT22;34807;51.456;7.244;2023-04-21T01:27:27;10.40;89.20
48998;DHT22;34807;51.456;7.244;2023-04-21T01:29:53;10.40;89.50
48998;DHT22;34807;51.456;7.244;2023-04-21T01:32:19;10.40;89.40
48998;DHT22;34807;51.456;7.244;2023-04-21T01:34:46;10.40;89.10
48998;DHT22;34807;51.456;7.244;2023-04-21T01:37:13;10.40;89.70
48998;DHT22;34807;51.456;7.244;2023-04-21T01:39:39;10.40;89.40
48998;DHT22;34807;51.456;7.244;2023-04-21T01:42:05;10.30;89.30
48998;DHT22;34807;51.456;7.244;2023-04-21T01:44:31;10.30;89.30
48998;DHT22;34807;51.456;7.244;2023-04-21T01:46:57;10.30;89.50
48998;DHT22;34807;51.456;7.244;2023-04-21T01:49:22;10.30;89.50
48998;DHT22;34807;51.456;7.244;2023-04-21T01:51:48;10.30;89.30
48998;DHT22;34807;51.456;7.244;2023-04-21T01:54:13;10.30;89.80
48998;DHT22;34807;51.456;7.244;2023-04-21T01:56:39;10.30;89.60
48998;DHT22;34807;51.456;7.244;2023-04-21T01:59:04;10.30;89.80
48998;DHT22;34807;51.456;7.244;2023-04-21T02:01:30;10.30;89.70
48998;DHT22;34807;51.456;7.244;2023-04-21T02:03:55;10.30;89.50
48998;DHT22;34807;51.456;7.244;2023-04-21T02:06:21;10.30;89.80
48998;DHT22;34807;51.456;7.244;2023-04-21T02:08:46;10.20;89.60
48998;DHT22;34807;51.456;7.244;2023-04-21T02:11:12;10.20;89.70
48998;DHT22;34807;51.456;7.244;2023-04-21T02:13:37;10.20;89.80
48998;DHT22;34807;51.456;7.244;2023-04-21T02:16:03;10.20;89.90
48998;DHT22;34807;51.456;7.244;2023-04-21T02:18:28;10.20;89.70
48998;DHT22;34807;51.456;7.244;2023-04-21T02:20:54;10.20;90.10
48998;DHT22;34807;51.456;7.244;2023-04-21T02:23:20;10.20;89.80
48998;DHT22;34807;51.456;7.244;2023-04-21T02:25:46;10.20;89.70
48998;DHT22;34807;51.456;7.244;2023-04-21T02:28:11;10.20;89.90
48998;DHT22;34807;51.456;7.244;2023-04-21T02:30:37;10.20;89.80
48998;DHT22;34807;51.456;7.244;2023-04-21T02:33:03;10.10;89.80
48998;DHT22;34807;51.456;7.244;2023-04-21T02:35:28;10.20;89.80
48998;DHT22;34807;51.456;7.244;2023-04-21T02:37:54;10.20;89.80
48998;DHT22;34807;51.456;7.244;2023-04-21T02:40:19;10.20;90.00
48998;DHT22;34807;51.456;7.244;2023-04-21T02:42:45;10.10;89.50
48998;DHT22;34807;51.456;7.244;2023-04-21T02:45:10;10.10;89.80
48998;DHT22;34807;51.456;7.244;2023-04-21T02:47:36;10.10;89.80
48998;DHT22;34807;51.456;7.244;2023-04-21T02:50:02;10.10;89.90
48998;DHT22;34807;51.456;7.244;2023-04-21T02:52:28;10.10;89.80
48998;DHT22;34807;51.456;7.244;2023-04-21T02:54:53;10.10;90.20
48998;DHT22;34807;51.456;7.244;2023-04-21T02:57:19;10.10;90.00
48998;DHT22;34807;51.456;7.244;2023-04-21T02:59:44;10.10;90.00
48998;DHT22;34807;51.456;7.244;2023-04-21T03:02:10;10.10;90.00
48998;DHT22;34807;51.456;7.244;2023-04-21T03:04:36;10.10;90.00
48998;DHT22;34807;51.456;7.244;2023-04-21T03:07:01;10.00;90.00
48998;DHT22;34807;51.456;7.244;2023-04-21T03:09:27;10.10;90.10
48998;DHT22;34807;51.456;7.244;2023-04-21T03:11:53;10.00;90.10
48998;DHT22;34807;51.456;7.244;2023-04-21T03:14:18;10.00;90.10
48998;DHT22;34807;51.456;7.244;2023-04-21T03:16:44;10.00;90.20
48998;DHT22;34807;51.456;7.244;2023-04-21T03:19:09;10.00;90.10
48998;DHT22;34807;51.456;7.244;2023-04-21T03:21:35;10.00;90.10
48998;DHT22;34807;51.456;7.244;2023-04-21T03:24:01;10.00;90.10
48998;DHT22;34807;51.456;7.244;2023-04-21T03:26:26;10.00;90.10
48998;DHT22;34807;51.456;7.244;2023-04-21T03:28:52;10.00;90.30
48998;DHT22;34807;51.456;7.244;2023-04-21T03:31:17;10.00;90.20
48998;DHT22;34807;51.456;7.244;2023-04-21T03:33:43;10.00;90.30
48998;DHT22;34807;51.456;7.244;2023-04-21T03:36:08;10.00;90.20
48998;DHT22;34807;51.456;7.244;2023-04-21T03:38:34;10.00;90.30
48998;DHT22;34807;51.456;7.244;2023-04-21T03:40:59;10.00;90.30
48998;DHT22;34807;51.456;7.244;2023-04-21T03:43:25;10.00;90.20
48998;DHT22;34807;51.456;7.244;2023-04-21T03:45:50;10.00;90.20
48998;DHT22;34807;51.456;7.244;2023-04-21T03:48:16;10.00;90.40
48998;DHT22;34807;51.456;7.244;2023-04-21T03:50:41;9.90;90.30
48998;DHT22;34807;51.456;7.244;2023-04-21T03:53:07;9.90;90.30
48998;DHT22;34807;51.456;7.244;2023-04-21T03:55:32;9.90;90.30
48998;DHT22;34807;51.456;7.244;2023-04-21T03:57:58;9.90;90.30
48998;DHT22;34807;51.456;7.244;2023-04-21T04:00:23;9.90;90.30
48998;DHT22;34807;51.456;7.244;2023-04-21T04:02:49;9.90;90.30
48998;DHT22;34807;51.456;7.244;2023-04-21T04:05:14;9.90;90.40
48998;DHT22;34807;51.456;7.244;2023-04-21T04:07:40;9.90;90.40
48998;DHT22;34807;51.456;7.244;2023-04-21T04:10:06;9.90;90.40
48998;DHT22;34807;51.456;7.244;2023-04-21T04:12:31;9.90;90.50
48998;DHT22;34807;51.456;7.244;2023-04-21T04:14:57;9.90;90.40
48998;DHT22;34807;51.456;7.244;2023-04-21T04:17:22;9.90;90.60
48998;DHT22;34807;51.456;7.244;2023-04-21T04:19:48;9.80;90.50
48998;DHT22;34807;51.456;7.244;2023-04-21T04:22:13;9.80;90.50
48998;DHT22;34807;51.456;7.244;2023-04-21T04:24:39;9.80;90.40
48998;DHT22;34807;51.456;7.244;2023-04-21T04:27:04;9.80;90.80
48998;DHT22;34807;51.456;7.244;2023-04-21T04:29:31;9.80;90.60
48998;DHT22;34807;51.456;7.244;2023-04-21T04:31:56;9.80;90.70
48998;DHT22;34807;51.456;7.244;2023-04-21T04:34:22;9.80;90.60
48998;DHT22;34807;51.456;7.244;2023-04-21T04:36:48;9.80;90.60
48998;DHT22;34807;51.456;7.244;2023-04-21T04:39:14;9.80;90.60
48998;DHT22;34807;51.456;7.244;2023-04-21T04:41:40;9.80;90.70
48998;DHT22;34807;51.456;7.244;2023-04-21T04:44:06;9.80;90.60
48998;DHT22;34807;51.456;7.244;2023-04-21T04:46:32;9.80;90.70
48998;DHT22;34807;51.456;7.244;2023-04-21T04:48:58;9.70;90.60
48998;DHT22;34807;51.456;7.244;2023-04-21T04:51:24;9.80;90.70
48998;DHT22;34807;51.456;7.244;2023-04-21T04:53:50;9.80;90.70
48998;DHT22;34807;51.456;7.244;2023-04-21T04:56:15;9.70;90.60
48998;DHT22;34807;51.456;7.244;2023-04-21T04:58:41;9.80;90.80
48998;DHT22;34807;51.456;7.244;2023-04-21T05:01:12;9.70;90.70
48998;DHT22;34807;51.456;7.244;2023-04-21T05:03:38;9.70;90.90
48998;DHT22;34807;51.456;7.244;2023-04-21T05:06:04;9.70;90.70
48998;DHT22;34807;51.456;7.244;2023-04-21T05:08:29;9.70;90.80
48998;DHT22;34807;51.456;7.244;2023-04-21T05:10:55;9.70;90.90
48998;DHT22;34807;51.456;7.244;2023-04-21T05:13:20;9.70;90.90
48998;DHT22;34807;51.456;7.244;2023-04-21T05:15:46;9.70;90.80
48998;DHT22;34807;51.456;7.244;2023-04-21T05:18:11;9.70;90.90
48998;DHT22;34807;51.456;7.244;2023-04-21T05:20:39;9.70;90.90
48998;DHT22;34807;51.456;7.244;2023-04-21T05:23:05;9.70;90.90
48998;DHT22;34807;51.456;7.244;2023-04-21T05:31:36;9.70;91.00
48998;DHT22;34807;51.456;7.244;2023-04-21T05:34:03;9.70;91.00
48998;DHT22;34807;51.456;7.244;2023-04-21T05:36:28;9.60;91.00
48998;DHT22;34807;51.456;7.244;2023-04-21T05:38:54;9.70;91.10
48998;DHT22;34807;51.456;7.244;2023-04-21T05:41:20;9.70;91.00
48998;DHT22;34807;51.456;7.244;2023-04-21T05:43:46;9.60;91.00
48998;DHT22;34807;51.456;7.244;2023-04-21T05:46:12;9.60;90.90
48998;DHT22;34807;51.456;7.244;2023-04-21T05:48:37;9.60;91.00
48998;DHT22;34807;51.456;7.244;2023-04-21T05:51:10;9.60;91.00
48998;DHT22;34807;51.456;7.244;2023-04-21T05:53:37;9.60;91.00
48998;DHT22;34807;51.456;7.244;2023-04-21T05:56:02;9.60;91.00
48998;DHT22;34807;51.456;7.244;2023-04-21T05:58:28;9.60;91.10
48998;DHT22;34807;51.456;7.244;2023-04-21T06:00:53;9.60;91.10
48998;DHT22;34807;51.456;7.244;2023-04-21T06:03:19;9.60;91.10
48998;DHT22;34807;51.456;7.244;2023-04-21T06:05:44;9.60;91.10
48998;DHT22;34807;51.456;7.244;2023-04-21T06:08:11;9.60;91.10
48998;DHT22;34807;51.456;7.244;2023-04-21T06:10:37;9.60;91.00
48998;DHT22;34807;51.456;7.244;2023-04-21T06:13:02;9.60;91.10
48998;DHT22;34807;51.456;7.244;2023-04-21T06:15:28;9.70;91.10
48998;DHT22;34807;51.456;7.244;2023-04-21T06:17:53;9.70;91.00
48998;DHT22;34807;51.456;7.244;2023-04-21T06:20:22;9.70;91.20
48998;DHT22;34807;51.456;7.244;2023-04-21T06:22:47;9.70;91.10
48998;DHT22;34807;51.456;7.244;2023-04-21T06:25:12;9.80;91.10
48998;DHT22;34807;51.456;7.244;2023-04-21T06:27:38;9.80;91.00
48998;DHT22;34807;51.456;7.244;2023-04-21T06:30:04;9.80;91.20
48998;DHT22;34807;51.456;7.244;2023-04-21T06:32:29;9.80;91.10
48998;DHT22;34807;51.456;7.244;2023-04-21T06:34:55;9.80;91.20
48998;DHT22;34807;51.456;7.244;2023-04-21T06:37:20;9.80;91.20
48998;DHT22;34807;51.456;7.244;2023-04-21T06:39:46;9.80;91.20
48998;DHT22;34807;51.456;7.244;2023-04-21T06:42:11;9.90;91.20
48998;DHT22;34807;51.456;7.244;2023-04-21T06:44:37;9.90;91.30
48998;DHT22;34807;51.456;7.244;2023-04-21T06:47:02;9.90;91.20
48998;DHT22;34807;51.456;7.244;2023-04-21T06:49:28;9.90;91.30
48998;DHT22;34807;51.456;7.244;2023-04-21T06:51:53;9.90;91.20
48998;DHT22;34807;51.456;7.244;2023-04-21T06:54:19;10.00;91.20
48998;DHT22;34807;51.456;7.244;2023-04-21T06:56:45;10.00;91.10
48998;DHT22;34807;51.456;7.244;2023-04-21T06:59:10;10.00;91.10
48998;DHT22;34807;51.456;7.244;2023-04-21T07:01:36;10.00;91.00
48998;DHT22;34807;51.456;7.244;2023-04-21T07:04:02;10.10;91.00
48998;DHT22;34807;51.456;7.244;2023-04-21T07:06:28;10.10;91.00
48998;DHT22;34807;51.456;7.244;2023-04-21T07:08:53;10.10;91.00
48998;DHT22;34807;51.456;7.244;2023-04-21T07:11:19;10.10;90.90
48998;DHT22;34807;51.456;7.244;2023-04-21T07:13:44;10.20;90.90
48998;DHT22;34807;51.456;7.244;2023-04-21T07:16:10;10.20;90.90
48998;DHT22;34807;51.456;7.244;2023-04-21T07:18:38;10.20;90.90
48998;DHT22;34807;51.456;7.244;2023-04-21T07:21:03;10.20;90.80
48998;DHT22;34807;51.456;7.244;2023-04-21T07:23:29;10.30;90.80
48998;DHT22;34807;51.456;7.244;2023-04-21T07:25:54;10.30;90.80
48998;DHT22;34807;51.456;7.244;2023-04-21T07:28:20;10.40;90.80
48998;DHT22;34807;51.456;7.244;2023-04-21T07:30:45;10.40;90.80
48998;DHT22;34807;51.456;7.244;2023-04-21T07:33:11;10.40;90.70
48998;DHT22;34807;51.456;7.244;2023-04-21T07:35:36;10.50;90.70
48998;DHT22;34807;51.456;7.244;2023-04-21T07:38:02;10.50;90.70
48998;DHT22;34807;51.456;7.244;2023-04-21T07:40:27;10.50;90.60
48998;DHT22;34807;51.456;7.244;2023-04-21T07:42:54;10.60;90.60
48998;DHT22;34807;51.456;7.244;2023-04-21T07:45:20;10.60;90.70
48998;DHT22;34807;51.456;7.244;2023-04-21T07:47:45;10.70;90.60
48998;DHT22;34807;51.456;7.244;2023-04-21T07:50:11;10.70;90.50
48998;DHT22;34807;51.456;7.244;2023-04-21T07:52:37;10.80;90.50
48998;DHT22;34807;51.456;7.244;2023-04-21T07:55:02;10.80;90.40
48998;DHT22;34807;51.456;7.244;2023-04-21T07:57:28;10.80;90.40
48998;DHT22;34807;51.456;7.244;2023-04-21T07:59:56;10.90;90.30
48998;DHT22;34807;51.456;7.244;2023-04-21T08:02:21;10.90;90.30
48998;DHT22;34807;51.456;7.244;2023-04-21T08:04:47;11.00;90.30
48998;DHT22;34807;51.456;7.244;2023-04-21T08:07:13;11.00;90.30
48998;DHT22;34807;51.456;7.244;2023-04-21T08:09:39;11.00;90.20
48998;DHT22;34807;51.456;7.244;2023-04-21T08:12:05;11.10;90.30
48998;DHT22;34807;51.456;7.244;2023-04-21T08:14:30;11.10;90.30
48998;DHT22;34807;51.456;7.244;2023-04-21T08:16:57;11.10;90.20
48998;DHT22;34807;51.456;7.244;2023-04-21T08:19:23;11.10;90.30
48998;DHT22;34807;51.456;7.244;2023-04-21T08:21:49;11.10;90.20
48998;DHT22;34807;51.456;7.244;2023-04-21T08:24:14;11.20;90.10
48998;DHT22;34807;51.456;7.244;2023-04-21T08:26:40;11.20;90.20
48998;DHT22;34807;51.456;7.244;2023-04-21T08:29:05;11.20;90.10
48998;DHT22;34807;51.456;7.244;2023-04-21T08:31:34;11.20;90.10
48998;DHT22;34807;51.456;7.244;2023-04-21T08:34:00;11.20;90.10
48998;DHT22;34807;51.456;7.244;2023-04-21T08:36:26;11.30;90.20
48998;DHT22;34807;51.456;7.244;2023-04-21T08:38:51;11.30;90.20
48998;DHT22;34807;51.456;7.244;2023-04-21T08:41:17;11.30;90.10
48998;DHT22;34807;51.456;7.244;2023-04-21T08:43:43;11.30;90.10
48998;DHT22;34807;51.456;7.244;2023-04-21T08:46:11;11.40;90.00
48998;DHT22;34807;51.456;7.244;2023-04-21T08:48:37;11.40;90.00
48998;DHT22;34807;51.456;7.244;2023-04-21T08:51:03;11.40;90.00
48998;DHT22;34807;51.456;7.244;2023-04-21T08:53:28;11.50;90.10
48998;DHT22;34807;51.456;7.244;2023-04-21T08:55:54;11.50;90.10
48998;DHT22;34807;51.456;7.244;2023-04-21T08:58:20;11.50;90.30
48998;DHT22;34807;51.456;7.244;2023-04-21T09:00:49;11.50;90.20
48998;DHT22;34807;51.456;7.244;2023-04-21T09:03:20;11.50;90.10
48998;DHT22;34807;51.456;7.244;2023-04-21T09:05:55;11.50;90.20
48998;DHT22;34807;51.456;7.244;2023-04-21T09:08:20;11.60;90.10
48998;DHT22;34807;51.456;7.244;2023-04-21T09:10:49;11.60;90.00
48998;DHT22;34807;51.456;7.244;2023-04-21T09:13:16;11.60;90.10
48998;DHT22;34807;51.456;7.244;2023-04-21T09:15:45;11.60;90.00
48998;DHT22;34807;51.456;7.244;2023-04-21T09:18:12;11.70;90.10
48998;DHT22;34807;51.456;7.244;2023-04-21T09:20:38;11.70;90.00
48998;DHT22;34807;51.456;7.244;2023-04-21T09:23:04;11.70;89.90
48998;DHT22;34807;51.456;7.244;2023-04-21T09:25:31;11.70;90.10
48998;DHT22;34807;51.456;7.244;2023-04-21T09:27:56;11.80;90.00
48998;DHT22;34807;51.456;7.244;2023-04-21T09:30:23;11.80;90.10
48998;DHT22;34807;51.456;7.244;2023-04-21T09:32:49;11.80;90.00
48998;DHT22;34807;51.456;7.244;2023-04-21T09:35:15;11.80;89.90
48998;DHT22;34807;51.456;7.244;2023-04-21T09:37:43;11.80;89.80
48998;DHT22;34807;51.456;7.244;2023-04-21T09:40:11;11.90;90.00
48998;DHT22;34807;51.456;7.244;2023-04-21T09:42:37;11.90;90.10
48998;DHT22;34807;51.456;7.244;2023-04-21T09:45:02;11.90;90.00
48998;DHT22;34807;51.456;7.244;2023-04-21T09:47:28;11.90;90.00
48998;DHT22;34807;51.456;7.244;2023-04-21T09:49:56;11.90;90.00
48998;DHT22;34807;51.456;7.244;2023-04-21T09:52:22;11.90;90.00
48998;DHT22;34807;51.456;7.244;2023-04-21T09:54:49;11.90;90.00
48998;DHT22;34807;51.456;7.244;2023-04-21T09:57:24;12.00;90.20
48998;DHT22;34807;51.456;7.244;2023-04-21T09:59:54;12.00;90.00
48998;DHT22;34807;51.456;7.244;2023-04-21T10:02:23;12.00;89.80
48998;DHT22;34807;51.456;7.244;2023-04-21T10:04:49;12.10;90.20
48998;DHT22;34807;51.456;7.244;2023-04-21T10:07:14;12.10;90.10
48998;DHT22;34807;51.456;7.244;2023-04-21T10:09:42;12.10;90.00
48998;DHT22;34807;51.456;7.244;2023-04-21T10:12:09;12.10;90.00
48998;DHT22;34807;51.456;7.244;2023-04-21T10:14:35;12.10;90.00
48998;DHT22;34807;51.456;7.244;2023-04-21T10:17:04;12.10;90.10
48998;DHT22;34807;51.456;7.244;2023-04-21T10:19:30;12.10;90.00
48998;DHT22;34807;51.456;7.244;2023-04-21T10:22:00;12.10;90.00
48998;DHT22;34807;51.456;7.244;2023-04-21T10:24:29;12.20;90.00
48998;DHT22;34807;51.456;7.244;2023-04-21T10:26:58;12.20;90.00
48998;DHT22;34807;51.456;7.244;2023-04-21T10:29:30;12.20;89.80
48998;DHT22;34807;51.456;7.244;2023-04-21T10:31:55;12.30;89.70
48998;DHT22;34807;51.456;7.244;2023-04-21T10:34:42;12.40;89.80
48998;DHT22;34807;51.456;7.244;2023-04-21T10:37:08;12.40;89.60
48998;DHT22;34807;51.456;7.244;2023-04-21T10:39:35;12.40;89.50
48998;DHT22;34807;51.456;7.244;2023-04-21T10:42:21;12.40;89.50
48998;DHT22;34807;51.456;7.244;2023-04-21T10:44:52;12.50;89.80
48998;DHT22;34807;51.456;7.244;2023-04-21T10:47:24;12.50;89.60
48998;DHT22;34807;51.456;7.244;2023-04-21T10:49:51;12.50;89.50
48998;DHT22;34807;51.456;7.244;2023-04-21T10:52:16;12.50;89.60
48998;DHT22;34807;51.456;7.244;2023-04-21T10:57:10;12.50;89.70
48998;DHT22;34807;51.456;7.244;2023-04-21T10:59:36;12.50;89.60
48998;DHT22;34807;51.456;7.244;2023-04-21T11:02:03;12.50;89.50
48998;DHT22;34807;51.456;7.244;2023-04-21T11:04:29;12.50;89.50
48998;DHT22;34807;51.456;7.244;2023-04-21T11:07:09;12.50;89.40
48998;DHT22;34807;51.456;7.244;2023-04-21T11:09:35;12.50;89.40
48998;DHT22;34807;51.456;7.244;2023-04-21T11:12:03;12.60;89.30
48998;DHT22;34807;51.456;7.244;2023-04-21T11:14:31;12.60;89.20
48998;DHT22;34807;51.456;7.244;2023-04-21T11:16:57;12.60;89.20
48998;DHT22;34807;51.456;7.244;2023-04-21T11:19:23;12.70;88.90
48998;DHT22;34807;51.456;7.244;2023-04-21T11:21:50;12.80;88.80
48998;DHT22;34807;51.456;7.244;2023-04-21T11:24:17;12.90;88.90
48998;DHT22;34807;51.456;7.244;2023-04-21T11:26:42;13.00;88.50
48998;DHT22;34807;51.456;7.244;2023-04-21T11:29:09;13.10;88.40
48998;DHT22;34807;51.456;7.244;2023-04-21T11:31:35;13.20;88.70
48998;DHT22;34807;51.456;7.244;2023-04-21T11:34:01;13.30;88.50
48998;DHT22;34807;51.456;7.244;2023-04-21T11:36:39;13.40;87.90
48998;DHT22;34807;51.456;7.244;2023-04-21T11:39:05;13.50;87.30
48998;DHT22;34807;51.456;7.244;2023-04-21T11:41:34;13.60;87.50
48998;DHT22;34807;51.456;7.244;2023-04-21T11:44:00;13.60;87.50
48998;DHT22;34807;51.456;7.244;2023-04-21T11:46:26;13.70;87.30
48998;DHT22;34807;51.456;7.244;2023-04-21T11:49:05;13.70;87.10
48998;DHT22;34807;51.456;7.244;2023-04-21T11:51:37;13.80;87.20
48998;DHT22;34807;51.456;7.244;2023-04-21T11:54:04;13.80;87.40
48998;DHT22;34807;51.456;7.244;2023-04-21T11:56:33;13.80;87.20
48998;DHT22;34807;51.456;7.244;2023-04-21T11:58:58;13.80;87.10
48998;DHT22;34807;51.456;7.244;2023-04-21T12:01:25;13.90;87.10
48998;DHT22;34807;51.456;7.244;2023-04-21T12:03:54;13.90;86.90
48998;DHT22;34807;51.456;7.244;2023-04-21T12:06:23;14.00;87.10
48998;DHT22;34807;51.456;7.244;2023-04-21T12:08:55;14.00;87.10
48998;DHT22;34807;51.456;7.244;2023-04-21T12:11:24;14.00;87.00
48998;DHT22;34807;51.456;7.244;2023-04-21T12:13:51;14.00;86.90
48998;DHT22;34807;51.456;7.244;2023-04-21T12:16:16;14.10;87.00
48998;DHT22;34807;51.456;7.244;2023-04-21T12:18:42;14.20;86.70
48998;DHT22;34807;51.456;7.244;2023-04-21T12:21:08;14.30;86.60
48998;DHT22;34807;51.456;7.244;2023-04-21T12:23:34;14.30;86.30
48998;DHT22;34807;51.456;7.244;2023-04-21T12:25:59;14.30;86.80
48998;DHT22;34807;51.456;7.244;2023-04-21T12:28:25;14.40;86.60
48998;DHT22;34807;51.456;7.244;2023-04-21T12:30:51;14.40;86.80
48998;DHT22;34807;51.456;7.244;2023-04-21T12:33:16;14.50;86.60
48998;DHT22;34807;51.456;7.244;2023-04-21T12:35:42;14.60;86.40
48998;DHT22;34807;51.456;7.244;2023-04-21T12:38:07;14.70;86.50
48998;DHT22;34807;51.456;7.244;2023-04-21T12:40:33;14.80;86.10
48998;DHT22;34807;51.456;7.244;2023-04-21T12:42:59;14.90;86.40
48998;DHT22;34807;51.456;7.244;2023-04-21T12:45:24;15.00;85.80
48998;DHT22;34807;51.456;7.244;2023-04-21T12:47:50;15.00;85.70
48998;DHT22;34807;51.456;7.244;2023-04-21T12:50:16;15.00;85.70
48998;DHT22;34807;51.456;7.244;2023-04-21T12:52:41;15.10;85.80
48998;DHT22;34807;51.456;7.244;2023-04-21T12:55:07;15.20;85.70
48998;DHT22;34807;51.456;7.244;2023-04-21T12:57:33;15.20;85.50
48998;DHT22;34807;51.456;7.244;2023-04-21T12:59:59;15.30;85.50
48998;DHT22;34807;51.456;7.244;2023-04-21T13:02:24;15.30;85.60
48998;DHT22;34807;51.456;7.244;2023-04-21T13:04:50;15.40;85.40
48998;DHT22;34807;51.456;7.244;2023-04-21T13:07:15;15.40;85.20
48998;DHT22;34807;51.456;7.244;2023-04-21T13:09:45;15.40;85.30
48998;DHT22;34807;51.456;7.244;2023-04-21T13:12:10;15.40;85.20
48998;DHT22;34807;51.456;7.244;2023-04-21T13:14:36;15.50;85.30
48998;DHT22;34807;51.456;7.244;2023-04-21T13:17:01;15.50;85.40
48998;DHT22;34807;51.456;7.244;2023-04-21T13:19:27;15.60;85.30
48998;DHT22;34807;51.456;7.244;2023-04-21T13:21:53;15.60;85.40
48998;DHT22;34807;51.456;7.244;2023-04-21T13:24:19;15.60;85.30
48998;DHT22;34807;51.456;7.244;2023-04-21T13:26:44;15.50;85.30
48998;DHT22;34807;51.456;7.244;2023-04-21T13:29:10;15.60;85.50
48998;DHT22;34807;51.456;7.244;2023-04-21T13:31:35;15.60;85.60
48998;DHT22;34807;51.456;7.244;2023-04-21T13:34:01;15.60;85.50
48998;DHT22;34807;51.456;7.244;2023-04-21T13:36:27;15.60;85.40
48998;DHT22;34807;51.456;7.244;2023-04-21T13:38:52;15.60;85.50
48998;DHT22;34807;51.456;7.244;2023-04-21T13:41:19;15.70;85.60
48998;DHT22;34807;51.456;7.244;2023-04-21T13:43:45;15.70;85.40
48998;DHT22;34807;51.456;7.244;2023-04-21T13:46:10;15.70;85.80
48998;DHT22;34807;51.456;7.244;2023-04-21T13:48:37;15.90;85.50
48998;DHT22;34807;51.456;7.244;2023-04-21T13:51:03;15.90;85.50
48998;DHT22;34807;51.456;7.244;2023-04-21T13:53:28;16.00;85.20
48998;DHT22;34807;51.456;7.244;2023-04-21T13:55:55;16.10;85.60
48998;DHT22;34807;51.456;7.244;2023-04-21T13:58:21;16.20;85.10
48998;DHT22;34807;51.456;7.244;2023-04-21T14:00:47;16.30;84.60
48998;DHT22;34807;51.456;7.244;2023-04-21T14:03:12;16.40;84.60
48998;DHT22;34807;51.456;7.244;2023-04-21T14:05:38;16.50;84.50
48998;DHT22;34807;51.456;7.244;2023-04-21T14:08:03;16.60;84.40
48998;DHT22;34807;51.456;7.244;2023-04-21T14:10:29;16.70;84.30
48998;DHT22;34807;51.456;7.244;2023-04-21T14:12:55;16.80;84.40
48998;DHT22;34807;51.456;7.244;2023-04-21T14:15:20;16.90;83.50
48998;DHT22;34807;51.456;7.244;2023-04-21T14:17:46;17.00;83.70
48998;DHT22;34807;51.456;7.244;2023-04-21T14:20:12;17.10;83.60
48998;DHT22;34807;51.456;7.244;2023-04-21T14:22:37;17.20;83.70
48998;DHT22;34807;51.456;7.244;2023-04-21T14:25:03;17.30;84.00
48998;DHT22;34807;51.456;7.244;2023-04-21T14:27:28;17.50;83.90
48998;DHT22;34807;51.456;7.244;2023-04-21T14:29:54;17.60;83.50
48998;DHT22;34807;51.456;7.244;2023-04-21T14:32:23;17.70;82.90
48998;DHT22;34807;51.456;7.244;2023-04-21T14:34:49;17.90;82.80
48998;DHT22;34807;51.456;7.244;2023-04-21T14:37:17;18.00;82.30
48998;DHT22;34807;51.456;7.244;2023-04-21T14:39:43;18.10;82.00
48998;DHT22;34807;51.456;7.244;2023-04-21T14:42:08;18.20;81.70
48998;DHT22;34807;51.456;7.244;2023-04-21T14:44:34;18.20;81.50
48998;DHT22;34807;51.456;7.244;2023-04-21T14:46:59;18.10;82.00
48998;DHT22;34807;51.456;7.244;2023-04-21T14:49:25;18.20;82.10
48998;DHT22;34807;51.456;7.244;2023-04-21T14:51:51;18.30;82.20
48998;DHT22;34807;51.456;7.244;2023-04-21T14:54:16;18.40;82.40
48998;DHT22;34807;51.456;7.244;2023-04-21T14:56:42;18.60;82.80
48998;DHT22;34807;51.456;7.244;2023-04-21T14:59:07;18.70;81.10
48998;DHT22;34807;51.456;7.244;2023-04-21T15:01:34;18.70;81.00
48998;DHT22;34807;51.456;7.244;2023-04-21T15:04:00;18.80;81.30
48998;DHT22;34807;51.456;7.244;2023-04-21T15:06:25;19.00;81.10
48998;DHT22;34807;51.456;7.244;2023-04-21T15:08:54;19.10;80.70
48998;DHT22;34807;51.456;7.244;2023-04-21T15:11:19;19.40;80.00
48998;DHT22;34807;51.456;7.244;2023-04-21T15:13:45;19.50;79.10
48998;DHT22;34807;51.456;7.244;2023-04-21T15:16:11;19.50;79.00
48998;DHT22;34807;51.456;7.244;2023-04-21T15:18:36;19.50;79.20
48998;DHT22;34807;51.456;7.244;2023-04-21T15:21:02;19.40;79.50
48998;DHT22;34807;51.456;7.244;2023-04-21T15:23:27;19.40;79.90
48998;DHT22;34807;51.456;7.244;2023-04-21T15:25:53;19.30;80.30
48998;DHT22;34807;51.456;7.244;2023-04-21T15:28:19;19.20;80.40
48998;DHT22;34807;51.456;7.244;2023-04-21T15:30:44;19.10;80.50
48998;DHT22;34807;51.456;7.244;2023-04-21T15:33:10;19.00;81.10
48998;DHT22;34807;51.456;7.244;2023-04-21T15:35:35;18.90;81.90
48998;DHT22;34807;51.456;7.244;2023-04-21T15:38:01;18.80;82.00